Time,TemperatureF,DewpointF,PressureIn,WindDirection,WindDirectionDegrees,WindSpeedMPH,WindSpeedGustMPH,Humidity,HourlyPrecipIn,Conditions,Clouds,dailyrainin,SolarRadiationWatts/m^2,SoftwareType,DateUTC
2013-10-30 00:02:00,29.0,29.0,-100.00,SSE,161,0.0,0.0,98,0.00,,,0.00,0.000000,,2013-10-30 06:02:00,
2013-10-30 00:42:00,29.0,28.0,-100.00,WSW,250,0.0,0.0,95,0.00,,,0.00,0.000000,,2013-10-30 06:42:00,
2013-10-30 00:53:00,29.0,28.0,-100.00,WSW,250,0.0,0.0,95,0.00,,,0.00,0.000000,,2013-10-30 06:53:00,
2013-10-30 01:02:00,29.0,28.0,-100.00,WSW,250,0.0,0.0,95,0.00,,,0.00,0.000000,,2013-10-30 07:02:00,
2013-10-30 01:12:00,29.0,28.0,-100.00,WSW,250,0.0,0.0,95,0.00,,,0.00,0.000000,,2013-10-30 07:12:00,
2013-10-30 01:42:00,30.0,28.0,-100.00,SW,233,0.0,0.0,93,0.00,,,0.00,0.000000,,2013-10-30 07:42:00,
2013-10-30 01:52:00,30.0,28.0,-100.00,SW,233,0.0,0.0,93,0.00,,,0.00,0.000000,,2013-10-30 07:52:00,
2013-10-30 02:02:00,30.0,28.0,-100.00,SW,233,0.0,0.0,93,0.00,,,0.00,0.000000,,2013-10-30 08:02:00,
2013-10-30 02:11:00,30.0,28.0,-100.00,SW,233,0.0,0.0,93,0.00,,,0.00,0.000000,,2013-10-30 08:11:00,
2013-10-30 02:42:00,31.0,29.0,-100.00,SSW,208,0.0,0.0,93,0.00,,,0.00,0.000000,,2013-10-30 08:42:00,
2013-10-30 02:52:00,31.0,29.0,-100.00,SSW,208,0.0,0.0,93,0.00,,,0.00,0.000000,,2013-10-30 08:52:00,
2013-10-30 03:02:00,31.0,29.0,-100.00,SSW,208,0.0,0.0,93,0.00,,,0.00,0.000000,,2013-10-30 09:02:00,
2013-10-30 03:11:00,31.0,29.0,-100.00,SSW,208,0.0,0.0,93,0.00,,,0.00,0.000000,,2013-10-30 09:11:00,
2013-10-30 03:13:00,31.0,29.0,-100.00,WNW,300,0.0,0.0,93,0.00,,,0.00,0.000000,,2013-10-30 09:13:00,
2013-10-30 03:43:00,31.0,29.0,-100.00,WNW,300,0.0,0.0,93,0.00,,,0.00,0.000000,,2013-10-30 09:43:00,
2013-10-30 03:54:00,31.0,29.0,-100.00,WNW,300,0.0,0.0,93,0.00,,,0.00,0.000000,,2013-10-30 09:54:00,
2013-10-30 04:03:00,31.0,29.0,-100.00,WNW,300,0.0,0.0,93,0.00,,,0.00,0.000000,,2013-10-30 10:03:00,
2013-10-30 04:43:00,33.0,31.0,-100.00,WNW,282,0.0,0.0,91,0.00,,,0.00,0.000000,,2013-10-30 10:43:00,
2013-10-30 04:53:00,33.0,31.0,-100.00,WNW,282,0.0,0.0,91,0.00,,,0.00,0.000000,,2013-10-30 10:53:00,
2013-10-30 05:02:00,33.0,31.0,-100.00,WNW,282,0.0,0.0,91,0.00,,,0.00,0.000000,,2013-10-30 11:02:00,
2013-10-30 05:12:00,33.0,31.0,-100.00,WNW,282,0.0,0.0,91,0.00,,,0.00,0.000000,,2013-10-30 11:12:00,
2013-10-30 05:42:00,35.0,31.0,-100.00,West,262,2.0,13.0,86,0.00,,,0.00,0.000000,,2013-10-30 11:42:00,
2013-10-30 05:52:00,35.0,31.0,-100.00,West,262,2.0,13.0,86,0.00,,,0.00,0.000000,,2013-10-30 11:52:00,
2013-10-30 06:01:00,35.0,31.0,-100.00,West,262,2.0,13.0,86,0.00,,,0.00,0.000000,,2013-10-30 12:01:00,
2013-10-30 06:12:00,35.0,31.0,-100.00,West,262,2.0,13.0,86,0.00,,,0.00,0.000000,,2013-10-30 12:12:00,
2013-10-30 06:42:00,36.0,32.0,-100.00,SSW,209,4.0,14.0,84,0.01,,,0.01,0.000000,,2013-10-30 12:42:00,
2013-10-30 06:52:00,36.0,32.0,-100.00,SSW,209,4.0,14.0,84,0.01,,,0.01,0.000000,,2013-10-30 12:52:00,
2013-10-30 07:02:00,36.0,32.0,-100.00,SSW,209,4.0,14.0,84,0.01,,,0.01,0.000000,,2013-10-30 13:02:00,
2013-10-30 07:11:00,36.0,32.0,-100.00,SSW,209,4.0,14.0,84,0.01,,,0.01,0.000000,,2013-10-30 13:11:00,
2013-10-30 07:42:00,32.0,31.0,-100.00,NE,54,3.0,8.0,96,0.01,,,0.02,0.000000,,2013-10-30 13:42:00,
2013-10-30 07:52:00,32.0,31.0,-100.00,NE,54,3.0,8.0,96,0.01,,,0.02,0.000000,,2013-10-30 13:52:00,
2013-10-30 08:02:00,32.0,31.0,-100.00,NE,54,3.0,8.0,96,0.01,,,0.02,0.000000,,2013-10-30 14:02:00,
2013-10-30 08:11:00,32.0,31.0,-100.00,NE,54,3.0,8.0,96,0.01,,,0.02,0.000000,,2013-10-30 14:11:00,
2013-10-30 08:42:00,31.0,30.0,-100.00,SSE,168,3.0,6.0,97,0.00,,,0.02,2.000000,,2013-10-30 14:42:00,
2013-10-30 08:52:00,31.0,30.0,-100.00,SSE,168,3.0,6.0,97,0.00,,,0.02,2.000000,,2013-10-30 14:52:00,
2013-10-30 09:02:00,31.0,30.0,-100.00,SSE,168,3.0,6.0,97,0.00,,,0.02,2.000000,,2013-10-30 15:02:00,
2013-10-30 09:11:00,31.0,30.0,-100.00,SSE,168,3.0,6.0,97,0.00,,,0.02,2.000000,,2013-10-30 15:11:00,
2013-10-30 09:43:00,32.0,32.0,-100.00,WNW,295,2.0,4.0,98,0.01,,,0.03,19.000000,,2013-10-30 15:43:00,
2013-10-30 09:54:00,32.0,32.0,-100.00,WNW,295,2.0,4.0,98,0.01,,,0.03,19.000000,,2013-10-30 15:54:00,
2013-10-30 10:03:00,32.0,32.0,-100.00,WNW,295,2.0,4.0,98,0.01,,,0.03,19.000000,,2013-10-30 16:03:00,
2013-10-30 10:12:00,32.0,32.0,-100.00,WNW,295,2.0,4.0,98,0.01,,,0.03,19.000000,,2013-10-30 16:12:00,
2013-10-30 10:43:00,38.0,35.0,-100.00,WNW,290,10.0,16.0,88,0.06,,,0.09,106.000000,,2013-10-30 16:43:00,
2013-10-30 10:53:00,38.0,35.0,-100.00,WNW,290,10.0,16.0,88,0.06,,,0.09,106.000000,,2013-10-30 16:53:00,
2013-10-30 11:02:00,38.0,35.0,-100.00,WNW,290,10.0,16.0,88,0.06,,,0.09,106.000000,,2013-10-30 17:02:00,
2013-10-30 11:12:00,38.0,35.0,-100.00,WNW,290,10.0,16.0,88,0.06,,,0.09,106.000000,,2013-10-30 17:12:00,
2013-10-30 11:42:00,41.0,37.0,-100.00,WNW,285,9.0,15.0,85,0.00,,,0.09,263.000000,,2013-10-30 17:42:00,
2013-10-30 11:52:00,41.0,37.0,-100.00,WNW,285,9.0,15.0,85,0.00,,,0.09,263.000000,,2013-10-30 17:52:00,
2013-10-30 12:02:00,41.0,37.0,-100.00,WNW,285,9.0,15.0,85,0.00,,,0.09,263.000000,,2013-10-30 18:02:00,
2013-10-30 12:12:00,41.0,37.0,-100.00,WNW,285,9.0,15.0,85,0.00,,,0.09,263.000000,,2013-10-30 18:12:00,
2013-10-30 13:11:00,45.0,37.0,-100.00,WNW,290,11.0,21.0,72,0.00,,,0.09,503.000000,,2013-10-30 19:11:00,
2013-10-30 13:42:00,45.0,34.0,-100.00,West,274,6.0,15.0,66,0.00,,,0.09,355.000000,,2013-10-30 19:42:00,
2013-10-30 13:52:00,45.0,34.0,-100.00,West,274,6.0,15.0,66,0.00,,,0.09,355.000000,,2013-10-30 19:52:00,
2013-10-30 14:02:00,45.0,34.0,-100.00,West,274,6.0,15.0,66,0.00,,,0.09,355.000000,,2013-10-30 20:02:00,
2013-10-30 14:12:00,45.0,34.0,-100.00,West,274,6.0,15.0,66,0.00,,,0.09,355.000000,,2013-10-30 20:12:00,
2013-10-30 14:42:00,48.0,35.0,-100.00,WSW,241,5.0,19.0,60,0.00,,,0.09,384.000000,,2013-10-30 20:42:00,
2013-10-30 14:52:00,48.0,35.0,-100.00,WSW,241,5.0,19.0,60,0.00,,,0.09,384.000000,,2013-10-30 20:52:00,
2013-10-30 15:01:00,48.0,35.0,-100.00,WSW,241,5.0,19.0,60,0.00,,,0.09,384.000000,,2013-10-30 21:01:00,
2013-10-30 15:12:00,48.0,35.0,-100.00,WSW,241,5.0,19.0,60,0.00,,,0.09,384.000000,,2013-10-30 21:12:00,
2013-10-30 15:13:00,49.0,33.0,-100.00,SW,231,8.0,17.0,53,0.00,,,0.09,564.000000,,2013-10-30 21:13:00,
2013-10-30 15:43:00,49.0,33.0,-100.00,SW,231,8.0,17.0,53,0.00,,,0.09,564.000000,,2013-10-30 21:43:00,
2013-10-30 15:53:00,49.0,33.0,-100.00,SW,231,8.0,17.0,53,0.00,,,0.09,564.000000,,2013-10-30 21:53:00,
2013-10-30 16:04:00,49.0,33.0,-100.00,SW,231,8.0,17.0,53,0.00,,,0.09,564.000000,,2013-10-30 22:04:00,
2013-10-30 16:43:00,49.0,33.0,-100.00,SW,222,5.0,16.0,54,0.00,,,0.09,465.000000,,2013-10-30 22:43:00,
2013-10-30 16:54:00,49.0,33.0,-100.00,SW,222,5.0,16.0,54,0.00,,,0.09,465.000000,,2013-10-30 22:54:00,
2013-10-30 17:03:00,49.0,33.0,-100.00,SW,222,5.0,16.0,54,0.00,,,0.09,465.000000,,2013-10-30 23:03:00,
2013-10-30 17:12:00,49.0,33.0,-100.00,SW,222,5.0,16.0,54,0.00,,,0.09,465.000000,,2013-10-30 23:12:00,
2013-10-30 17:42:00,44.0,31.0,-100.00,SW,232,3.0,16.0,61,0.00,,,0.09,77.000000,,2013-10-30 23:42:00,
2013-10-30 17:53:00,44.0,31.0,-100.00,SW,232,3.0,16.0,61,0.00,,,0.09,77.000000,,2013-10-30 23:53:00,
2013-10-30 18:02:00,44.0,31.0,-100.00,SW,232,3.0,16.0,61,0.00,,,0.09,77.000000,,2013-10-31 00:02:00,
2013-10-30 18:11:00,44.0,31.0,-100.00,SW,232,3.0,16.0,61,0.00,,,0.09,77.000000,,2013-10-31 00:11:00,
2013-10-30 18:42:00,39.0,36.0,-100.00,East,100,2.0,7.0,89,0.00,,,0.09,10.000000,,2013-10-31 00:42:00,
2013-10-30 18:52:00,39.0,36.0,-100.00,East,100,2.0,7.0,89,0.00,,,0.09,10.000000,,2013-10-31 00:52:00,
2013-10-30 19:02:00,39.0,36.0,-100.00,East,100,2.0,7.0,89,0.00,,,0.09,10.000000,,2013-10-31 01:02:00,
2013-10-30 19:12:00,39.0,36.0,-100.00,East,100,2.0,7.0,89,0.00,,,0.09,10.000000,,2013-10-31 01:12:00,
2013-10-30 19:42:00,36.0,35.0,-100.00,SSE,155,3.0,4.0,97,0.00,,,0.09,0.000000,,2013-10-31 01:42:00,
2013-10-30 19:53:00,36.0,35.0,-100.00,SSE,155,3.0,4.0,97,0.00,,,0.09,0.000000,,2013-10-31 01:53:00,
2013-10-30 20:02:00,36.0,35.0,-100.00,SSE,155,3.0,4.0,97,0.00,,,0.09,0.000000,,2013-10-31 02:02:00,
2013-10-30 20:12:00,36.0,35.0,-100.00,SSE,155,3.0,4.0,97,0.00,,,0.09,0.000000,,2013-10-31 02:12:00,
2013-10-30 20:52:00,35.0,34.0,-100.00,SSW,195,2.0,4.0,98,0.00,,,0.09,0.000000,,2013-10-31 02:52:00,
2013-10-30 21:02:00,35.0,34.0,-100.00,SSW,195,2.0,4.0,98,0.00,,,0.09,0.000000,,2013-10-31 03:02:00,
2013-10-30 21:11:00,35.0,34.0,-100.00,SSW,195,2.0,4.0,98,0.00,,,0.09,0.000000,,2013-10-31 03:11:00,
2013-10-30 21:13:00,39.0,32.0,-100.00,WNW,287,2.0,6.0,76,0.00,,,0.09,0.000000,,2013-10-31 03:13:00,
2013-10-30 21:44:00,39.0,32.0,-100.00,WNW,287,2.0,6.0,76,0.00,,,0.09,0.000000,,2013-10-31 03:44:00,
2013-10-30 21:55:00,39.0,32.0,-100.00,WNW,287,2.0,6.0,76,0.00,,,0.09,0.000000,,2013-10-31 03:55:00,
2013-10-30 22:04:00,39.0,32.0,-100.00,WNW,287,2.0,6.0,76,0.00,,,0.09,0.000000,,2013-10-31 04:04:00,
2013-10-30 22:13:00,42.0,32.0,-100.00,NW,320,4.0,9.0,67,0.00,,,0.09,0.000000,,2013-10-31 04:13:00,
2013-10-30 22:43:00,42.0,32.0,-100.00,NW,320,4.0,9.0,67,0.00,,,0.09,0.000000,,2013-10-31 04:43:00,
2013-10-30 22:54:00,42.0,32.0,-100.00,NW,320,4.0,9.0,67,0.00,,,0.09,0.000000,,2013-10-31 04:54:00,
2013-10-30 23:04:00,42.0,32.0,-100.00,NW,320,4.0,9.0,67,0.00,,,0.09,0.000000,,2013-10-31 05:04:00,
2013-10-30 23:43:00,42.0,31.0,-100.00,WNW,287,3.0,10.0,66,0.00,,,0.09,0.000000,,2013-10-31 05:43:00,
2013-10-30 23:52:00,42.0,31.0,-100.00,WNW,287,3.0,10.0,66,0.00,,,0.09,0.000000,,2013-10-31 05:52:00,